Time,TemperatureF,DewpointF,PressureIn,WindDirection,WindDirectionDegrees,WindSpeedMPH,WindSpeedGustMPH,Humidity,HourlyPrecipIn,Conditions,Clouds,dailyrainin,SoftwareType,DateUTC
2013-12-13 00:07:00,15.4,5.8,30.25,WNW,292,0.0,-999.0,65,-99.99,,,0.00,Acu-Link.com,2013-12-13 05:07:00,
2013-12-13 00:24:00,15.4,6.1,30.25,West,270,1.7,-999.0,66,-99.99,,,0.00,Acu-Link.com,2013-12-13 05:24:00,
2013-12-13 00:40:00,16.3,7.0,30.24,SE,135,0.0,-999.0,66,-99.99,,,0.00,Acu-Link.com,2013-12-13 05:40:00,
2013-12-13 00:55:00,16.2,6.5,30.24,SW,225,0.0,-999.0,65,-99.99,,,0.00,Acu-Link.com,2013-12-13 05:55:00,
2013-12-13 01:10:00,17.1,7.4,30.23,NNW,337,3.7,-999.0,65,-99.99,,,0.00,Acu-Link.com,2013-12-13 06:10:00,
2013-12-13 01:25:00,16.3,7.0,30.23,West,270,0.0,-999.0,66,-99.99,,,0.00,Acu-Link.com,2013-12-13 06:25:00,
2013-12-13 01:40:00,16.2,7.2,30.22,SSW,202,0.0,-999.0,67,-99.99,,,0.00,Acu-Link.com,2013-12-13 06:40:00,
2013-12-13 01:55:00,15.8,7.5,30.22,South,180,0.0,-999.0,69,-99.99,,,0.00,Acu-Link.com,2013-12-13 06:55:00,
2013-12-13 02:10:00,16.0,7.7,30.22,SSW,202,2.2,-999.0,69,-99.99,,,0.00,Acu-Link.com,2013-12-13 07:10:00,
2013-12-13 02:25:00,16.0,7.7,30.21,South,180,2.2,-999.0,69,-99.99,,,0.00,Acu-Link.com,2013-12-13 07:25:00,
2013-12-13 02:40:00,16.0,8.0,30.22,SSW,202,1.1,-999.0,70,-99.99,,,0.00,Acu-Link.com,2013-12-13 07:40:00,
2013-12-13 02:55:00,15.4,7.7,30.22,South,180,0.0,-999.0,71,-99.99,,,0.00,Acu-Link.com,2013-12-13 07:55:00,
2013-12-13 03:11:00,15.1,7.7,30.21,SSW,202,0.0,-999.0,72,-99.99,,,0.00,Acu-Link.com,2013-12-13 08:11:00,
2013-12-13 03:26:00,14.5,7.5,30.20,SSW,202,0.0,-999.0,73,-99.99,,,0.00,Acu-Link.com,2013-12-13 08:26:00,
2013-12-13 03:41:00,15.1,8.0,30.19,SE,135,0.0,-999.0,73,-99.99,,,0.00,Acu-Link.com,2013-12-13 08:41:00,
2013-12-13 03:56:00,15.3,8.2,30.18,WSW,247,1.7,-999.0,73,-99.99,,,0.00,Acu-Link.com,2013-12-13 08:56:00,
2013-12-13 04:45:00,15.4,8.6,30.16,SSW,202,1.7,-999.0,74,-99.99,,,0.00,Acu-Link.com,2013-12-13 09:45:00,
2013-12-13 05:00:00,15.4,8.3,30.16,SW,225,0.0,-999.0,73,-99.99,,,0.00,Acu-Link.com,2013-12-13 10:00:00,
2013-12-13 05:15:00,15.6,8.5,30.16,South,180,0.0,-999.0,73,-99.99,,,0.00,Acu-Link.com,2013-12-13 10:15:00,
2013-12-13 05:30:00,16.0,9.2,30.16,SSE,157,0.0,-999.0,74,-99.99,,,0.00,Acu-Link.com,2013-12-13 10:30:00,
2013-12-13 05:45:00,15.8,9.0,30.16,WNW,292,0.0,-999.0,74,-99.99,,,0.00,Acu-Link.com,2013-12-13 10:45:00,
2013-12-13 06:00:00,16.0,9.8,30.16,South,180,0.0,-999.0,76,-99.99,,,0.00,Acu-Link.com,2013-12-13 11:00:00,
2013-12-13 06:16:00,16.5,10.0,30.16,SE,135,0.0,-999.0,75,-99.99,,,0.00,Acu-Link.com,2013-12-13 11:16:00,
2013-12-13 06:31:00,16.2,10.0,30.16,South,180,0.0,-999.0,76,-99.99,,,0.00,Acu-Link.com,2013-12-13 11:31:00,
2013-12-13 06:46:00,15.3,9.7,30.16,North,0,0.0,-999.0,78,-99.99,,,0.00,Acu-Link.com,2013-12-13 11:46:00,
2013-12-13 07:01:00,14.9,9.9,30.16,NE,45,0.0,-999.0,80,-99.99,,,0.00,Acu-Link.com,2013-12-13 12:01:00,
2013-12-13 07:16:00,15.3,10.3,30.16,SSE,157,0.0,-999.0,80,-99.99,,,0.00,Acu-Link.com,2013-12-13 12:16:00,
2013-12-13 07:31:00,15.4,10.4,30.15,WSW,247,0.0,-999.0,80,-99.99,,,0.00,Acu-Link.com,2013-12-13 12:31:00,
2013-12-13 07:46:00,15.1,10.3,30.16,NW,315,0.0,-999.0,81,-99.99,,,0.00,Acu-Link.com,2013-12-13 12:46:00,
2013-12-13 08:01:00,14.7,10.5,30.16,West,270,0.0,-999.0,83,-99.99,,,0.00,Acu-Link.com,2013-12-13 13:01:00,
2013-12-13 08:16:00,15.4,10.9,30.16,SW,225,0.0,-999.0,82,-99.99,,,0.00,Acu-Link.com,2013-12-13 13:16:00,
2013-12-13 08:32:00,16.9,12.1,30.16,West,270,0.0,-999.0,81,-99.99,,,0.00,Acu-Link.com,2013-12-13 13:32:00,
2013-12-13 08:47:00,18.3,12.9,30.15,SSW,202,1.7,-999.0,79,-99.99,,,0.00,Acu-Link.com,2013-12-13 13:47:00,
2013-12-13 09:02:00,19.8,13.8,30.16,WSW,247,1.7,-999.0,77,-99.99,,,0.00,Acu-Link.com,2013-12-13 14:02:00,
2013-12-13 09:17:00,20.5,14.2,30.16,South,180,3.7,-999.0,76,-99.99,,,0.00,Acu-Link.com,2013-12-13 14:17:00,
2013-12-13 09:32:00,21.6,14.9,30.16,SSE,157,2.7,-999.0,75,-99.99,,,0.00,Acu-Link.com,2013-12-13 14:32:00,
2013-12-13 09:47:00,22.8,15.8,30.17,SSW,202,3.7,-999.0,74,-99.99,,,0.00,Acu-Link.com,2013-12-13 14:47:00,
2013-12-13 10:02:00,24.3,16.6,30.17,SSW,202,2.7,-999.0,72,-99.99,,,0.00,Acu-Link.com,2013-12-13 15:02:00,
2013-12-13 10:17:00,25.5,17.1,30.17,SSW,202,5.8,-999.0,70,-99.99,,,0.00,Acu-Link.com,2013-12-13 15:17:00,
2013-12-13 10:32:00,28.0,18.5,30.17,South,180,3.2,-999.0,67,-99.99,,,0.00,Acu-Link.com,2013-12-13 15:32:00,
2013-12-13 10:48:00,29.1,18.8,30.16,South,180,4.2,-999.0,65,-99.99,,,0.00,Acu-Link.com,2013-12-13 15:48:00,
2013-12-13 11:03:00,31.5,19.6,30.15,SSW,202,5.3,-999.0,61,-99.99,,,0.00,Acu-Link.com,2013-12-13 16:03:00,
2013-12-13 11:18:00,32.5,20.2,30.15,West,270,2.2,-999.0,60,-99.99,,,0.00,Acu-Link.com,2013-12-13 16:18:00,
2013-12-13 11:33:00,33.4,21.4,30.15,SW,225,3.2,-999.0,61,-99.99,,,0.00,Acu-Link.com,2013-12-13 16:33:00,
2013-12-13 11:48:00,32.7,20.8,30.15,SSE,157,3.7,-999.0,61,-99.99,,,0.00,Acu-Link.com,2013-12-13 16:48:00,
2013-12-13 12:03:00,34.9,21.2,30.14,SSW,202,2.7,-999.0,57,-99.99,,,0.00,Acu-Link.com,2013-12-13 17:03:00,
2013-12-13 12:18:00,37.4,21.9,30.12,ESE,112,0.0,-999.0,53,-99.99,,,0.00,Acu-Link.com,2013-12-13 17:18:00,
2013-12-13 12:33:00,33.1,20.4,30.10,South,180,6.3,-999.0,59,-99.99,,,0.00,Acu-Link.com,2013-12-13 17:33:00,
2013-12-13 12:48:00,34.3,20.7,30.09,SW,225,3.2,-999.0,57,-99.99,,,0.00,Acu-Link.com,2013-12-13 17:48:00,
2013-12-13 13:04:00,36.1,21.5,30.09,WNW,292,2.7,-999.0,55,-99.99,,,0.00,Acu-Link.com,2013-12-13 18:04:00,
2013-12-13 13:19:00,36.1,21.5,30.09,SW,225,3.2,-999.0,55,-99.99,,,0.00,Acu-Link.com,2013-12-13 18:19:00,
2013-12-13 13:34:00,36.3,22.1,30.09,SW,225,1.7,-999.0,56,-99.99,,,0.00,Acu-Link.com,2013-12-13 18:34:00,
2013-12-13 13:49:00,35.6,21.9,30.08,South,180,3.2,-999.0,57,-99.99,,,0.00,Acu-Link.com,2013-12-13 18:49:00,
2013-12-13 14:04:00,36.7,22.9,30.07,SW,225,0.0,-999.0,57,-99.99,,,0.01,Acu-Link.com,2013-12-13 19:04:00,
2013-12-13 14:19:00,37.9,23.2,30.07,SE,135,2.2,-999.0,55,-99.99,,,0.01,Acu-Link.com,2013-12-13 19:19:00,
2013-12-13 14:34:00,37.4,23.2,30.07,SE,135,2.2,-999.0,56,-99.99,,,0.01,Acu-Link.com,2013-12-13 19:34:00,
2013-12-13 14:49:00,37.2,23.4,30.07,East,90,2.2,-999.0,57,-99.99,,,0.01,Acu-Link.com,2013-12-13 19:49:00,
2013-12-13 15:04:00,36.9,22.7,30.07,South,180,4.2,-999.0,56,-99.99,,,0.02,Acu-Link.com,2013-12-13 20:04:00,
2013-12-13 15:20:00,37.0,23.2,30.06,SSE,157,1.1,-999.0,57,-99.99,,,0.02,Acu-Link.com,2013-12-13 20:20:00,
2013-12-13 15:35:00,37.4,24.0,30.06,SSE,157,0.0,-999.0,58,-99.99,,,0.02,Acu-Link.com,2013-12-13 20:35:00,
2013-12-13 15:50:00,36.9,23.9,30.05,SSE,157,1.7,-999.0,59,-99.99,,,0.03,Acu-Link.com,2013-12-13 20:50:00,
2013-12-13 16:05:00,36.5,24.7,30.04,SSE,157,3.2,-999.0,62,-99.99,,,0.03,Acu-Link.com,2013-12-13 21:05:00,
2013-12-13 16:20:00,36.1,24.4,30.04,ESE,112,0.0,-999.0,62,-99.99,,,0.03,Acu-Link.com,2013-12-13 21:20:00,
2013-12-13 16:35:00,35.6,23.9,30.03,South,180,1.7,-999.0,62,-99.99,,,0.03,Acu-Link.com,2013-12-13 21:35:00,
2013-12-13 16:51:00,35.2,23.9,30.04,SSW,202,3.7,-999.0,63,-99.99,,,0.03,Acu-Link.com,2013-12-13 21:51:00,
2013-12-13 17:06:00,34.9,24.3,30.03,South,180,1.1,-999.0,65,-99.99,,,0.03,Acu-Link.com,2013-12-13 22:06:00,
2013-12-13 17:21:00,34.5,24.3,30.04,SSE,157,2.7,-999.0,66,-99.99,,,0.03,Acu-Link.com,2013-12-13 22:21:00,
2013-12-13 17:36:00,34.7,23.4,30.04,ESE,112,2.2,-999.0,63,-99.99,,,0.03,Acu-Link.com,2013-12-13 22:36:00,
2013-12-13 17:51:00,34.7,23.8,30.04,SSW,202,1.1,-999.0,64,-99.99,,,0.03,Acu-Link.com,2013-12-13 22:51:00,
2013-12-13 18:06:00,34.7,23.4,30.05,SSW,202,2.7,-999.0,63,-99.99,,,0.03,Acu-Link.com,2013-12-13 23:06:00,
2013-12-13 18:21:00,34.7,23.8,30.06,South,180,2.7,-999.0,64,-99.99,,,0.04,Acu-Link.com,2013-12-13 23:21:00,
2013-12-13 18:36:00,34.7,23.8,30.07,WSW,247,1.1,-999.0,64,-99.99,,,0.04,Acu-Link.com,2013-12-13 23:36:00,
2013-12-13 18:51:00,33.6,28.4,30.09,SSW,202,4.7,-999.0,81,-99.99,,,0.04,Acu-Link.com,2013-12-13 23:51:00,
2013-12-13 19:07:00,31.6,29.0,30.10,SSE,157,0.0,-999.0,90,-99.99,,,0.04,Acu-Link.com,2013-12-14 00:07:00,
2013-12-13 19:22:00,31.1,29.3,30.09,SSE,157,3.7,-999.0,93,-99.99,,,0.04,Acu-Link.com,2013-12-14 00:22:00,
2013-12-13 19:37:00,31.1,29.6,30.09,SSW,202,4.2,-999.0,94,-99.99,,,0.04,Acu-Link.com,2013-12-14 00:37:00,
2013-12-13 19:52:00,30.9,29.4,30.09,SSE,157,2.2,-999.0,94,-99.99,,,0.04,Acu-Link.com,2013-12-14 00:52:00,
2013-12-13 20:07:00,30.9,29.4,30.09,South,180,1.7,-999.0,94,-99.99,,,0.04,Acu-Link.com,2013-12-14 01:07:00,
2013-12-13 20:22:00,30.9,29.4,30.08,South,180,0.0,-999.0,94,-99.99,,,0.04,Acu-Link.com,2013-12-14 01:22:00,
2013-12-13 20:37:00,30.9,29.4,30.07,SSE,157,1.1,-999.0,94,-99.99,,,0.04,Acu-Link.com,2013-12-14 01:37:00,
2013-12-13 20:53:00,30.9,29.4,30.07,SE,135,0.0,-999.0,94,-99.99,,,0.04,Acu-Link.com,2013-12-14 01:53:00,
2013-12-13 21:08:00,30.9,29.4,30.07,ESE,112,0.0,-999.0,94,-99.99,,,0.04,Acu-Link.com,2013-12-14 02:08:00,
2013-12-13 21:23:00,30.9,29.4,30.06,SE,135,1.1,-999.0,94,-99.99,,,0.04,Acu-Link.com,2013-12-14 02:23:00,
2013-12-13 21:38:00,30.9,29.4,30.05,ESE,112,2.2,-999.0,94,-99.99,,,0.04,Acu-Link.com,2013-12-14 02:38:00,
2013-12-13 21:53:00,30.9,29.4,30.05,SE,135,1.7,-999.0,94,-99.99,,,0.04,Acu-Link.com,2013-12-14 02:53:00,
2013-12-13 22:08:00,30.9,29.4,30.05,ESE,112,2.2,-999.0,94,-99.99,,,0.04,Acu-Link.com,2013-12-14 03:08:00,
2013-12-13 22:23:00,30.9,29.4,30.05,SE,135,0.0,-999.0,94,-99.99,,,0.04,Acu-Link.com,2013-12-14 03:23:00,
2013-12-13 22:38:00,30.9,29.4,30.04,SE,135,2.2,-999.0,94,-99.99,,,0.04,Acu-Link.com,2013-12-14 03:38:00,
2013-12-13 22:53:00,30.9,29.4,30.05,SE,135,2.2,-999.0,94,-99.99,,,0.04,Acu-Link.com,2013-12-14 03:53:00,
2013-12-13 23:09:00,30.9,29.4,30.04,SE,135,2.2,-999.0,94,-99.99,,,0.04,Acu-Link.com,2013-12-14 04:09:00,
2013-12-13 23:24:00,30.9,29.4,30.04,SE,135,0.0,-999.0,94,-99.99,,,0.04,Acu-Link.com,2013-12-14 04:24:00,
2013-12-13 23:39:00,30.9,29.4,30.05,SE,135,0.0,-999.0,94,-99.99,,,0.04,Acu-Link.com,2013-12-14 04:39:00,
2013-12-13 23:54:00,30.9,29.4,30.05,SE,135,2.7,-999.0,94,-99.99,,,0.04,Acu-Link.com,2013-12-14 04:54:00,